ADDS METAR Data INFO
IDs: Format: Raw Decoded Include TAF

Data at: 0453 UTC 25 May 2018

METAR for:PADQ (Kodiak Arpt, AK, US)
Text:PADQ 250427Z 04013KT 10SM -RA SCT010 BKN013 OVC023 07/06 A2968 RMK AO2 P0002 T00720056
Temperature: 7.2°C ( 45°F)
Dewpoint: 5.6°C ( 42°F) [RH = 90%]
Pressure (altimeter):29.68 inches Hg (1005.2 mb)
Winds:from the NE (40 degrees) at 15 MPH (13 knots; 6.7 m/s)
Visibility:10 or more sm (16+ km)
Ceiling:1300 feet AGL
Clouds: scattered clouds at 1000 feet AGL, broken clouds at 1300 feet AGL, overcast cloud deck at 2300 feet AGL
Weather:-RA (light rain)
Text:PADQ 250400Z 04010KT 9SM -RA FEW009 SCT014 OVC027 07/06 A2969 RMK AO2 P0001 T00720056
Temperature: 7.2°C ( 45°F)
Dewpoint: 5.6°C ( 42°F) [RH = 90%]
Pressure (altimeter):29.69 inches Hg (1005.5 mb)
Winds:from the NE (40 degrees) at 12 MPH (10 knots; 5.1 m/s)
Visibility: 9 sm ( 14 km)
Ceiling:2700 feet AGL
Clouds: few clouds at 900 feet AGL, scattered clouds at 1400 feet AGL, overcast cloud deck at 2700 feet AGL
Weather:-RA (light rain)
Text:PADQ 250353Z 05008KT 5SM -RA BR BKN013 BKN019 OVC026 07/06 A2969 RMK AO2 SLP054 P0003 T00720056
Temperature: 7.2°C ( 45°F)
Dewpoint: 5.6°C ( 42°F) [RH = 90%]
Pressure (altimeter):29.69 inches Hg (1005.5 mb) [Sea level pressure: 1005.4 mb]
Winds:from the NE (50 degrees) at 9 MPH (8 knots; 4.1 m/s)
Visibility: 5 sm ( 8 km)
Ceiling:1300 feet AGL
Clouds: broken clouds at 1300 feet AGL, broken clouds at 1900 feet AGL, overcast cloud deck at 2600 feet AGL
Weather:-RA BR (light rain, mist)
Text:PADQ 250341Z 04006KT 8SM -RA FEW008 BKN013 OVC025 07/06 A2969 RMK AO2 P0002 T00720056
Temperature: 7.2°C ( 45°F)
Dewpoint: 5.6°C ( 42°F) [RH = 90%]
Pressure (altimeter):29.69 inches Hg (1005.5 mb)
Winds:from the NE (40 degrees) at 7 MPH (6 knots; 3.1 m/s)
Visibility: 8 sm ( 13 km)
Ceiling:1300 feet AGL
Clouds: few clouds at 800 feet AGL, broken clouds at 1300 feet AGL, overcast cloud deck at 2500 feet AGL
Weather:-RA (light rain)
Text:PADQ 250307Z 06009KT 9SM -RA SCT010 BKN022 OVC027 07/06 A2969 RMK AO2 P0001 T00720056
Temperature: 7.2°C ( 45°F)
Dewpoint: 5.6°C ( 42°F) [RH = 90%]
Pressure (altimeter):29.69 inches Hg (1005.5 mb)
Winds:from the ENE (60 degrees) at 10 MPH (9 knots; 4.6 m/s)
Visibility: 9 sm ( 14 km)
Ceiling:2200 feet AGL
Clouds: scattered clouds at 1000 feet AGL, broken clouds at 2200 feet AGL, overcast cloud deck at 2700 feet AGL
Weather:-RA (light rain)
Text:PADQ 250253Z 06011KT 5SM -RA BR SCT008 BKN012 OVC029 07/06 A2969 RMK AO2 SLP055 P0003 60006 T00720056 51005
Temperature: 7.2°C ( 45°F)
Dewpoint: 5.6°C ( 42°F) [RH = 90%]
Pressure (altimeter):29.69 inches Hg (1005.5 mb) [Sea level pressure: 1005.5 mb]
Winds:from the ENE (60 degrees) at 13 MPH (11 knots; 5.7 m/s)
Visibility: 5 sm ( 8 km)
Ceiling:1200 feet AGL
Clouds: scattered clouds at 800 feet AGL, broken clouds at 1200 feet AGL, overcast cloud deck at 2900 feet AGL
Weather:-RA BR (light rain, mist)
Text:PADQ 250153Z 04009KT 10SM -RA SCT008 BKN013 OVC032 07/06 A2969 RMK AO2 SLP053 P0001 T00720056
Temperature: 7.2°C ( 45°F)
Dewpoint: 5.6°C ( 42°F) [RH = 90%]
Pressure (altimeter):29.69 inches Hg (1005.5 mb) [Sea level pressure: 1005.3 mb]
Winds:from the NE (40 degrees) at 10 MPH (9 knots; 4.6 m/s)
Visibility:10 or more sm (16+ km)
Ceiling:1300 feet AGL
Clouds: scattered clouds at 800 feet AGL, broken clouds at 1300 feet AGL, overcast cloud deck at 3200 feet AGL
Weather:-RA (light rain)
Text:PADQ 250053Z 05008KT 10SM -RA SCT008 BKN013 OVC032 08/06 A2969 RMK AO2 RAB2359E31B46 SLP053 P0002 T00780056
Temperature: 7.8°C ( 46°F)
Dewpoint: 5.6°C ( 42°F) [RH = 86%]
Pressure (altimeter):29.69 inches Hg (1005.5 mb) [Sea level pressure: 1005.3 mb]
Winds:from the NE (50 degrees) at 9 MPH (8 knots; 4.1 m/s)
Visibility:10 or more sm (16+ km)
Ceiling:1300 feet AGL
Clouds: scattered clouds at 800 feet AGL, broken clouds at 1300 feet AGL, overcast cloud deck at 3200 feet AGL
Weather:-RA (light rain)
Text:PADQ 250038Z 05009KT 10SM SCT008 BKN013 OVC032 07/06 A2969 RMK AO2 RAB2359E31 P0002 T00720056
Temperature: 7.2°C ( 45°F)
Dewpoint: 5.6°C ( 42°F) [RH = 90%]
Pressure (altimeter):29.69 inches Hg (1005.5 mb)
Winds:from the NE (50 degrees) at 10 MPH (9 knots; 4.6 m/s)
Visibility:10 or more sm (16+ km)
Ceiling:1300 feet AGL
Clouds: scattered clouds at 800 feet AGL, broken clouds at 1300 feet AGL, overcast cloud deck at 3200 feet AGL
Text:PADQ 250025Z COR 05011KT 7SM -RA BR SCT008 BKN013 OVC032 07/06 A2969 RMK AO2 RAB2359 P0002 T00670056
Temperature: 6.7°C ( 44°F)
Dewpoint: 5.6°C ( 42°F) [RH = 93%]
Pressure (altimeter):29.69 inches Hg (1005.5 mb)
Winds:from the NE (50 degrees) at 13 MPH (11 knots; 5.7 m/s)
Visibility: 7 sm ( 11 km)
Ceiling:1300 feet AGL
Clouds: scattered clouds at 800 feet AGL, broken clouds at 1300 feet AGL, overcast cloud deck at 3200 feet AGL
Weather:-RA BR (light rain, mist)
Text:PADQ 242355Z 05010KT 10SM SCT009 BKN015 OVC023 08/06 A2968 RMK AO2 T00780061
Temperature: 7.8°C ( 46°F)
Dewpoint: 6.1°C ( 43°F) [RH = 89%]
Pressure (altimeter):29.68 inches Hg (1005.2 mb)
Winds:from the NE (50 degrees) at 12 MPH (10 knots; 5.1 m/s)
Visibility:10 or more sm (16+ km)
Ceiling:1500 feet AGL
Clouds: scattered clouds at 900 feet AGL, broken clouds at 1500 feet AGL, overcast cloud deck at 2300 feet AGL
Text:PADQ 242353Z 04010KT 10SM BKN012 OVC030 08/06 A2968 RMK AO2 RAB03E40 SLP050 P0000 60006 T00780061 10083 20072 51009
Temperature: 7.8°C ( 46°F)
Dewpoint: 6.1°C ( 43°F) [RH = 89%]
Pressure (altimeter):29.68 inches Hg (1005.2 mb) [Sea level pressure: 1005.0 mb]
Winds:from the NE (40 degrees) at 12 MPH (10 knots; 5.1 m/s)
Visibility:10 or more sm (16+ km)
Ceiling:1200 feet AGL
Clouds: broken clouds at 1200 feet AGL, overcast cloud deck at 3000 feet AGL

TAF for:PADQ (Kodiak Arpt, AK, US) issued at 0303 UTC 25 May 2018
Text:PADQ 250303Z 2503/2524 05013KT 6SM -RA SCT008 OVC015
Forecast period:0300 to 0700 UTC 25 May 2018
Forecast type:FROM: standard forecast or significant change
Winds:from the NE (50 degrees) at 15 MPH (13 knots; 6.7 m/s)
Visibility: 6 sm ( 10 km)
Ceiling:1500 feet AGL
Clouds: scattered clouds at 800 feet AGL, overcast cloud deck at 1500 feet AGL
Weather:-RA (light rain)
Text:TEMPO 2503/2507 5SM -RA BKN008
Forecast period:0300 to 0700 UTC 25 May 2018
Forecast type:TEMPORARY: The following changes expected for less than half the time period
Visibility: 5 sm ( 8 km)
Ceiling:800 feet AGL
Clouds: broken clouds at 800 feet AGL
Weather:-RA (light rain)
Text:FM250700 03014KT 4SM -RA BR SCT003 BKN008 OVC015
Forecast period:0700 UTC 25 May 2018 to 0000 UTC 26 May 2018
Forecast type:FROM: standard forecast or significant change
Winds:from the NNE (30 degrees) at 16 MPH (14 knots; 7.2 m/s)
Visibility: 4 sm ( 6 km)
Ceiling:800 feet AGL
Clouds: scattered clouds at 300 feet AGL, broken clouds at 800 feet AGL, overcast cloud deck at 1500 feet AGL
Weather:-RA BR (light rain, mist)